メインページ
METAR-TAF:

METAR-TAF

空港 :

ウェリントン国際空港

ウェリントン, ニュージーランド

緯度: 41-20S, 経度: 174-48E, 海抜: 12m

現時点の気象観測

当レポートは18分前の19:00(UTC)に作成
の風 3kt
気温 11°C
湿度 76%
気圧 1030 hPa
視程: 9000m

METAR: NZWN 151900Z AUTO 36003KT 9000 OVC036/// 11/07 Q1030 NOSIG

時間: 08:18 (19:18 UTC)

予報

当レポートは2時間15分前の17:03(UTC)に作成
予報は15日の 18時(UTC)から 16日の 18時(UTC)まで有効
南/南東の風 8kt
視程10km以上
高度3000ftの千切れ雲あり
15日の 20時(UTC)から 15日の 22時(UTC)まで徐々に
の風 10kt
16日の 0000時(UTC)から
の風 15kt、最大25ktの突風を伴う
視程10km以上
高度2000ftの雲は散在している
16日の 12時(UTC)から 16日の 14時(UTC)まで徐々に
北/北西の風 12kt

TAF: NZWN 151703Z 1518/1618 16008KT 9999 BKN030 BECMG 1520/1522 36010KT FM160000 36015G25KT 9999 SCT020 BECMG 1612/1614 34012KT

4,000以上の空港の気象観測と天気予報(METAR報とTAF報)

利用可能な観測所は地図上に黄色い丸と赤い丸で示す。

丸の上にカーソルを重ねると観測所名を参照できる。

次にクリックすると気象観測と天気予報を参照できる。

マップの切り替え:黒色「×」印の緑ボタンをクリックして拡大、「-」印の緑ボタンをクリックして縮小、緑色の三角印をクリックして隣りの地図に切り替え


METAR-TAF: